Terminal Aerodrome Forecast
Issued by NWS

Home | Current Version | Previous Version | Text Only | Print | Product List | Glossary Off
Versions: 1 2 3 4 5 6 7 8 9 10 11 12 13 14 15 16 17 18

689
FTUS43 KUNR 272320
TAFGCC
TAF
KGCC 272320Z 2800/2824 01008KT 4SM -RA SCT006 OVC010
     FM280600 02006KT 1SM -SN BKN003 OVC006
     FM281400 04011KT 3SM -SN OVC010
     FM281600 04012KT P6SM OVC020=

USA.gov is the U.S. government's official web portal to all federal, state and local government web resources and services.